sensor_id;sensor_type;location;lat;lon;timestamp;temperature;humidity
6581;DHT22;3324;50.796;7.228;2022-11-09T00:01:27;15.80;99.90
6581;DHT22;3324;50.796;7.228;2022-11-09T00:03:57;15.70;99.90
6581;DHT22;3324;50.796;7.228;2022-11-09T00:06:24;15.70;99.90
6581;DHT22;3324;50.796;7.228;2022-11-09T00:08:50;15.70;99.90
6581;DHT22;3324;50.796;7.228;2022-11-09T00:11:16;15.80;99.90
6581;DHT22;3324;50.796;7.228;2022-11-09T00:13:43;15.80;99.90
6581;DHT22;3324;50.796;7.228;2022-11-09T00:16:11;15.90;99.90
6581;DHT22;3324;50.796;7.228;2022-11-09T00:18:37;15.90;99.90
6581;DHT22;3324;50.796;7.228;2022-11-09T00:21:08;15.80;99.90
6581;DHT22;3324;50.796;7.228;2022-11-09T00:23:34;15.80;99.90
6581;DHT22;3324;50.796;7.228;2022-11-09T00:26:05;15.90;99.90
6581;DHT22;3324;50.796;7.228;2022-11-09T00:28:31;15.80;99.90
6581;DHT22;3324;50.796;7.228;2022-11-09T00:30:58;15.70;99.90
6581;DHT22;3324;50.796;7.228;2022-11-09T00:33:24;15.80;99.90
6581;DHT22;3324;50.796;7.228;2022-11-09T00:35:50;15.80;99.90
6581;DHT22;3324;50.796;7.228;2022-11-09T00:38:15;15.80;99.90
6581;DHT22;3324;50.796;7.228;2022-11-09T00:40:41;15.80;99.90
6581;DHT22;3324;50.796;7.228;2022-11-09T00:43:06;15.70;99.90
6581;DHT22;3324;50.796;7.228;2022-11-09T00:45:32;15.80;99.90
6581;DHT22;3324;50.796;7.228;2022-11-09T00:47:57;15.80;99.90
6581;DHT22;3324;50.796;7.228;2022-11-09T00:50:23;15.90;99.90
6581;DHT22;3324;50.796;7.228;2022-11-09T00:52:48;15.90;99.90
6581;DHT22;3324;50.796;7.228;2022-11-09T00:55:15;15.90;99.90
6581;DHT22;3324;50.796;7.228;2022-11-09T00:57:41;15.90;99.90
6581;DHT22;3324;50.796;7.228;2022-11-09T01:00:07;15.90;99.90
6581;DHT22;3324;50.796;7.228;2022-11-09T01:02:32;15.90;99.90
6581;DHT22;3324;50.796;7.228;2022-11-09T01:04:58;15.80;99.90
6581;DHT22;3324;50.796;7.228;2022-11-09T01:07:24;15.80;99.90
6581;DHT22;3324;50.796;7.228;2022-11-09T01:09:50;15.80;99.90
6581;DHT22;3324;50.796;7.228;2022-11-09T01:12:15;15.80;99.90
6581;DHT22;3324;50.796;7.228;2022-11-09T01:14:41;15.80;99.90
6581;DHT22;3324;50.796;7.228;2022-11-09T01:17:06;15.80;99.90
6581;DHT22;3324;50.796;7.228;2022-11-09T01:19:32;15.80;99.90
6581;DHT22;3324;50.796;7.228;2022-11-09T01:21:57;15.80;99.90
6581;DHT22;3324;50.796;7.228;2022-11-09T01:24:23;15.80;99.90
6581;DHT22;3324;50.796;7.228;2022-11-09T01:26:49;15.80;99.90
6581;DHT22;3324;50.796;7.228;2022-11-09T01:29:14;15.80;99.90
6581;DHT22;3324;50.796;7.228;2022-11-09T01:31:40;15.70;99.90
6581;DHT22;3324;50.796;7.228;2022-11-09T01:34:06;15.60;99.90
6581;DHT22;3324;50.796;7.228;2022-11-09T01:36:31;15.70;99.90
6581;DHT22;3324;50.796;7.228;2022-11-09T01:38:57;15.50;99.90
6581;DHT22;3324;50.796;7.228;2022-11-09T01:41:25;15.50;99.90
6581;DHT22;3324;50.796;7.228;2022-11-09T01:44:16;15.60;99.90
6581;DHT22;3324;50.796;7.228;2022-11-09T01:52:02;15.70;99.90
6581;DHT22;3324;50.796;7.228;2022-11-09T01:54:32;15.70;99.90
6581;DHT22;3324;50.796;7.228;2022-11-09T01:57:06;15.60;99.90
6581;DHT22;3324;50.796;7.228;2022-11-09T01:59:38;15.60;99.90
6581;DHT22;3324;50.796;7.228;2022-11-09T02:02:05;15.50;99.90
6581;DHT22;3324;50.796;7.228;2022-11-09T02:04:48;15.50;99.90
6581;DHT22;3324;50.796;7.228;2022-11-09T02:07:17;15.60;99.90
6581;DHT22;3324;50.796;7.228;2022-11-09T02:09:55;15.70;99.90
6581;DHT22;3324;50.796;7.228;2022-11-09T02:12:23;15.50;99.90
6581;DHT22;3324;50.796;7.228;2022-11-09T02:14:51;15.50;99.90
6581;DHT22;3324;50.796;7.228;2022-11-09T02:17:18;15.50;99.90
6581;DHT22;3324;50.796;7.228;2022-11-09T02:19:44;15.60;99.90
6581;DHT22;3324;50.796;7.228;2022-11-09T02:22:09;15.60;99.90
6581;DHT22;3324;50.796;7.228;2022-11-09T02:24:35;15.60;99.90
6581;DHT22;3324;50.796;7.228;2022-11-09T02:27:01;15.70;99.90
6581;DHT22;3324;50.796;7.228;2022-11-09T02:29:31;15.50;99.90
6581;DHT22;3324;50.796;7.228;2022-11-09T02:32:23;15.50;99.90
6581;DHT22;3324;50.796;7.228;2022-11-09T02:34:47;15.50;99.90
6581;DHT22;3324;50.796;7.228;2022-11-09T02:37:33;15.40;99.90
6581;DHT22;3324;50.796;7.228;2022-11-09T02:40:02;15.50;99.90
6581;DHT22;3324;50.796;7.228;2022-11-09T02:42:28;15.50;99.90
6581;DHT22;3324;50.796;7.228;2022-11-09T02:44:56;15.40;99.90
6581;DHT22;3324;50.796;7.228;2022-11-09T02:47:22;15.30;99.90
6581;DHT22;3324;50.796;7.228;2022-11-09T02:49:47;15.20;99.90
6581;DHT22;3324;50.796;7.228;2022-11-09T02:52:15;15.20;99.90
6581;DHT22;3324;50.796;7.228;2022-11-09T02:54:40;15.40;99.90
6581;DHT22;3324;50.796;7.228;2022-11-09T02:57:06;15.30;99.90
6581;DHT22;3324;50.796;7.228;2022-11-09T02:59:31;15.20;99.90
6581;DHT22;3324;50.796;7.228;2022-11-09T03:01:57;15.20;99.90
6581;DHT22;3324;50.796;7.228;2022-11-09T03:04:23;15.20;99.90
6581;DHT22;3324;50.796;7.228;2022-11-09T03:06:48;15.10;99.90
6581;DHT22;3324;50.796;7.228;2022-11-09T03:09:14;15.10;99.90
6581;DHT22;3324;50.796;7.228;2022-11-09T03:11:40;15.10;99.90
6581;DHT22;3324;50.796;7.228;2022-11-09T03:14:07;15.00;99.90
6581;DHT22;3324;50.796;7.228;2022-11-09T03:16:35;15.10;99.90
6581;DHT22;3324;50.796;7.228;2022-11-09T03:19:01;15.20;99.90
6581;DHT22;3324;50.796;7.228;2022-11-09T03:21:27;15.20;99.90
6581;DHT22;3324;50.796;7.228;2022-11-09T03:23:53;15.30;99.90
6581;DHT22;3324;50.796;7.228;2022-11-09T03:26:19;15.30;99.90
6581;DHT22;3324;50.796;7.228;2022-11-09T03:28:45;15.40;99.90
6581;DHT22;3324;50.796;7.228;2022-11-09T03:31:10;15.40;99.90
6581;DHT22;3324;50.796;7.228;2022-11-09T03:33:36;15.40;99.90
6581;DHT22;3324;50.796;7.228;2022-11-09T03:36:02;15.40;99.90
6581;DHT22;3324;50.796;7.228;2022-11-09T03:38:28;15.40;99.90
6581;DHT22;3324;50.796;7.228;2022-11-09T03:40:53;15.30;99.90
6581;DHT22;3324;50.796;7.228;2022-11-09T03:43:19;15.30;99.90
6581;DHT22;3324;50.796;7.228;2022-11-09T03:45:46;15.20;99.90
6581;DHT22;3324;50.796;7.228;2022-11-09T03:48:12;15.10;99.90
6581;DHT22;3324;50.796;7.228;2022-11-09T03:50:37;15.10;99.90
6581;DHT22;3324;50.796;7.228;2022-11-09T03:53:10;15.00;99.90
6581;DHT22;3324;50.796;7.228;2022-11-09T03:55:36;15.00;99.90
6581;DHT22;3324;50.796;7.228;2022-11-09T03:58:03;14.90;99.90
6581;DHT22;3324;50.796;7.228;2022-11-09T04:00:28;15.00;99.90
6581;DHT22;3324;50.796;7.228;2022-11-09T04:02:54;15.10;99.90
6581;DHT22;3324;50.796;7.228;2022-11-09T04:05:20;15.00;99.90
6581;DHT22;3324;50.796;7.228;2022-11-09T04:07:51;15.00;99.90
6581;DHT22;3324;50.796;7.228;2022-11-09T04:10:17;15.20;99.90
6581;DHT22;3324;50.796;7.228;2022-11-09T04:12:44;15.10;99.90
6581;DHT22;3324;50.796;7.228;2022-11-09T04:15:10;15.00;99.90
6581;DHT22;3324;50.796;7.228;2022-11-09T04:17:36;15.00;99.90
6581;DHT22;3324;50.796;7.228;2022-11-09T04:20:01;15.10;99.90
6581;DHT22;3324;50.796;7.228;2022-11-09T04:22:27;15.00;99.90
6581;DHT22;3324;50.796;7.228;2022-11-09T04:24:53;14.90;99.90
6581;DHT22;3324;50.796;7.228;2022-11-09T04:27:18;15.00;99.90
6581;DHT22;3324;50.796;7.228;2022-11-09T04:29:44;14.90;99.90
6581;DHT22;3324;50.796;7.228;2022-11-09T04:32:10;14.90;99.90
6581;DHT22;3324;50.796;7.228;2022-11-09T04:34:35;14.90;99.90
6581;DHT22;3324;50.796;7.228;2022-11-09T04:40:24;14.80;99.90
6581;DHT22;3324;50.796;7.228;2022-11-09T04:42:51;14.80;99.90
6581;DHT22;3324;50.796;7.228;2022-11-09T04:45:16;14.80;99.90
6581;DHT22;3324;50.796;7.228;2022-11-09T04:47:42;14.80;99.90
6581;DHT22;3324;50.796;7.228;2022-11-09T04:50:08;14.80;99.90
6581;DHT22;3324;50.796;7.228;2022-11-09T04:52:34;14.80;99.90
6581;DHT22;3324;50.796;7.228;2022-11-09T04:54:59;14.90;99.90
6581;DHT22;3324;50.796;7.228;2022-11-09T04:57:25;14.90;99.90
6581;DHT22;3324;50.796;7.228;2022-11-09T04:59:50;14.90;99.90
6581;DHT22;3324;50.796;7.228;2022-11-09T05:02:16;14.90;99.90
6581;DHT22;3324;50.796;7.228;2022-11-09T05:04:41;14.90;99.90
6581;DHT22;3324;50.796;7.228;2022-11-09T05:07:07;14.90;99.90
6581;DHT22;3324;50.796;7.228;2022-11-09T05:09:33;15.00;99.90
6581;DHT22;3324;50.796;7.228;2022-11-09T05:11:58;14.90;99.90
6581;DHT22;3324;50.796;7.228;2022-11-09T05:14:24;14.90;99.90
6581;DHT22;3324;50.796;7.228;2022-11-09T05:16:49;14.80;99.90
6581;DHT22;3324;50.796;7.228;2022-11-09T05:19:15;14.80;99.90
6581;DHT22;3324;50.796;7.228;2022-11-09T05:21:41;14.90;99.90
6581;DHT22;3324;50.796;7.228;2022-11-09T05:24:07;14.90;99.90
6581;DHT22;3324;50.796;7.228;2022-11-09T05:26:35;15.10;99.90
6581;DHT22;3324;50.796;7.228;2022-11-09T05:29:03;15.10;99.90
6581;DHT22;3324;50.796;7.228;2022-11-09T05:31:30;15.00;99.90
6581;DHT22;3324;50.796;7.228;2022-11-09T05:33:56;14.90;99.90
6581;DHT22;3324;50.796;7.228;2022-11-09T05:36:22;15.00;99.90
6581;DHT22;3324;50.796;7.228;2022-11-09T05:38:48;14.90;99.90
6581;DHT22;3324;50.796;7.228;2022-11-09T05:41:14;14.90;99.90
6581;DHT22;3324;50.796;7.228;2022-11-09T05:43:39;14.90;99.90
6581;DHT22;3324;50.796;7.228;2022-11-09T05:46:06;15.00;99.90
6581;DHT22;3324;50.796;7.228;2022-11-09T05:48:32;15.10;99.90
6581;DHT22;3324;50.796;7.228;2022-11-09T05:51:02;15.20;99.90
6581;DHT22;3324;50.796;7.228;2022-11-09T05:53:29;15.30;99.90
6581;DHT22;3324;50.796;7.228;2022-11-09T05:55:55;15.30;99.90
6581;DHT22;3324;50.796;7.228;2022-11-09T05:58:20;15.10;99.90
6581;DHT22;3324;50.796;7.228;2022-11-09T06:00:46;15.10;99.90
6581;DHT22;3324;50.796;7.228;2022-11-09T06:03:12;15.00;99.90
6581;DHT22;3324;50.796;7.228;2022-11-09T06:05:39;14.90;99.90
6581;DHT22;3324;50.796;7.228;2022-11-09T06:08:07;15.00;99.90
6581;DHT22;3324;50.796;7.228;2022-11-09T06:10:33;14.90;99.90
6581;DHT22;3324;50.796;7.228;2022-11-09T06:12:59;14.90;99.90
6581;DHT22;3324;50.796;7.228;2022-11-09T06:15:24;14.80;99.90
6581;DHT22;3324;50.796;7.228;2022-11-09T06:17:53;14.90;99.90
6581;DHT22;3324;50.796;7.228;2022-11-09T06:20:20;14.80;99.90
6581;DHT22;3324;50.796;7.228;2022-11-09T06:22:57;14.80;99.90
6581;DHT22;3324;50.796;7.228;2022-11-09T06:25:23;14.80;99.90
6581;DHT22;3324;50.796;7.228;2022-11-09T06:27:49;14.90;99.90
6581;DHT22;3324;50.796;7.228;2022-11-09T06:30:15;14.90;99.90
6581;DHT22;3324;50.796;7.228;2022-11-09T06:32:41;15.00;99.90
6581;DHT22;3324;50.796;7.228;2022-11-09T06:35:08;15.00;99.90
6581;DHT22;3324;50.796;7.228;2022-11-09T06:37:34;15.10;99.90
6581;DHT22;3324;50.796;7.228;2022-11-09T06:40:00;15.00;99.90
6581;DHT22;3324;50.796;7.228;2022-11-09T06:42:25;15.00;99.90
6581;DHT22;3324;50.796;7.228;2022-11-09T06:44:51;14.90;99.90
6581;DHT22;3324;50.796;7.228;2022-11-09T06:47:16;14.90;99.90
6581;DHT22;3324;50.796;7.228;2022-11-09T06:49:42;14.90;99.90
6581;DHT22;3324;50.796;7.228;2022-11-09T06:52:07;14.80;99.90
6581;DHT22;3324;50.796;7.228;2022-11-09T06:54:33;14.80;99.90
6581;DHT22;3324;50.796;7.228;2022-11-09T06:56:59;14.80;99.90
6581;DHT22;3324;50.796;7.228;2022-11-09T06:59:25;14.80;99.90
6581;DHT22;3324;50.796;7.228;2022-11-09T07:01:51;14.90;99.90
6581;DHT22;3324;50.796;7.228;2022-11-09T07:04:16;14.90;99.90
6581;DHT22;3324;50.796;7.228;2022-11-09T07:06:42;14.80;99.90
6581;DHT22;3324;50.796;7.228;2022-11-09T07:09:08;14.80;99.90
6581;DHT22;3324;50.796;7.228;2022-11-09T07:11:34;14.80;99.90
6581;DHT22;3324;50.796;7.228;2022-11-09T07:14:00;14.80;99.90
6581;DHT22;3324;50.796;7.228;2022-11-09T07:16:28;14.90;99.90
6581;DHT22;3324;50.796;7.228;2022-11-09T07:18:54;14.80;99.90
6581;DHT22;3324;50.796;7.228;2022-11-09T07:21:19;14.80;99.90
6581;DHT22;3324;50.796;7.228;2022-11-09T07:23:47;14.90;99.90
6581;DHT22;3324;50.796;7.228;2022-11-09T07:26:13;14.90;99.90
6581;DHT22;3324;50.796;7.228;2022-11-09T07:28:38;14.90;99.90
6581;DHT22;3324;50.796;7.228;2022-11-09T07:31:04;14.90;99.90
6581;DHT22;3324;50.796;7.228;2022-11-09T07:33:30;14.90;99.90
6581;DHT22;3324;50.796;7.228;2022-11-09T07:35:58;14.90;99.90
6581;DHT22;3324;50.796;7.228;2022-11-09T07:38:25;14.80;99.90
6581;DHT22;3324;50.796;7.228;2022-11-09T07:40:50;14.80;99.90
6581;DHT22;3324;50.796;7.228;2022-11-09T07:43:16;14.80;99.90
6581;DHT22;3324;50.796;7.228;2022-11-09T07:45:42;14.90;99.90
6581;DHT22;3324;50.796;7.228;2022-11-09T07:48:10;14.90;99.90
6581;DHT22;3324;50.796;7.228;2022-11-09T07:50:37;14.90;99.90
6581;DHT22;3324;50.796;7.228;2022-11-09T07:53:04;15.00;99.90
6581;DHT22;3324;50.796;7.228;2022-11-09T07:55:32;14.90;99.90
6581;DHT22;3324;50.796;7.228;2022-11-09T07:58:03;14.90;99.90
6581;DHT22;3324;50.796;7.228;2022-11-09T08:00:31;14.90;99.90
6581;DHT22;3324;50.796;7.228;2022-11-09T08:02:57;15.00;99.90
6581;DHT22;3324;50.796;7.228;2022-11-09T08:05:22;15.00;99.90
6581;DHT22;3324;50.796;7.228;2022-11-09T08:07:53;15.00;99.90
6581;DHT22;3324;50.796;7.228;2022-11-09T08:10:19;15.10;99.90
6581;DHT22;3324;50.796;7.228;2022-11-09T08:12:44;15.10;99.90
6581;DHT22;3324;50.796;7.228;2022-11-09T08:15:16;15.10;99.90
6581;DHT22;3324;50.796;7.228;2022-11-09T08:17:43;15.10;99.90
6581;DHT22;3324;50.796;7.228;2022-11-09T08:20:09;15.10;99.90
6581;DHT22;3324;50.796;7.228;2022-11-09T08:22:40;15.10;99.90
6581;DHT22;3324;50.796;7.228;2022-11-09T08:25:07;15.20;99.90
6581;DHT22;3324;50.796;7.228;2022-11-09T08:27:32;15.20;99.90
6581;DHT22;3324;50.796;7.228;2022-11-09T08:30:05;15.20;99.90
6581;DHT22;3324;50.796;7.228;2022-11-09T08:32:31;15.30;99.90
6581;DHT22;3324;50.796;7.228;2022-11-09T08:34:57;15.30;99.90
6581;DHT22;3324;50.796;7.228;2022-11-09T08:37:22;15.30;99.90
6581;DHT22;3324;50.796;7.228;2022-11-09T08:39:48;15.30;99.90
6581;DHT22;3324;50.796;7.228;2022-11-09T08:42:13;15.30;99.90
6581;DHT22;3324;50.796;7.228;2022-11-09T08:44:39;15.40;99.90
6581;DHT22;3324;50.796;7.228;2022-11-09T08:47:04;15.40;99.90
6581;DHT22;3324;50.796;7.228;2022-11-09T08:49:30;15.40;99.90
6581;DHT22;3324;50.796;7.228;2022-11-09T08:51:56;15.50;99.90
6581;DHT22;3324;50.796;7.228;2022-11-09T08:54:22;15.50;99.90
6581;DHT22;3324;50.796;7.228;2022-11-09T08:56:48;15.60;99.90
6581;DHT22;3324;50.796;7.228;2022-11-09T08:59:14;15.70;99.90
6581;DHT22;3324;50.796;7.228;2022-11-09T09:01:39;15.70;99.90
6581;DHT22;3324;50.796;7.228;2022-11-09T09:04:05;15.80;99.90
6581;DHT22;3324;50.796;7.228;2022-11-09T09:06:31;15.80;99.90
6581;DHT22;3324;50.796;7.228;2022-11-09T09:08:56;15.80;99.90
6581;DHT22;3324;50.796;7.228;2022-11-09T09:11:22;15.90;99.90
6581;DHT22;3324;50.796;7.228;2022-11-09T09:13:47;16.00;99.90
6581;DHT22;3324;50.796;7.228;2022-11-09T09:16:14;16.10;99.90
6581;DHT22;3324;50.796;7.228;2022-11-09T09:18:40;16.10;99.90
6581;DHT22;3324;50.796;7.228;2022-11-09T09:21:09;16.10;99.90
6581;DHT22;3324;50.796;7.228;2022-11-09T09:23:35;16.10;99.90
6581;DHT22;3324;50.796;7.228;2022-11-09T09:26:01;16.10;99.90
6581;DHT22;3324;50.796;7.228;2022-11-09T09:28:26;16.10;99.90
6581;DHT22;3324;50.796;7.228;2022-11-09T09:30:52;16.10;99.90
6581;DHT22;3324;50.796;7.228;2022-11-09T09:33:18;16.20;99.90
6581;DHT22;3324;50.796;7.228;2022-11-09T09:35:44;16.30;99.90
6581;DHT22;3324;50.796;7.228;2022-11-09T09:38:09;16.30;99.90
6581;DHT22;3324;50.796;7.228;2022-11-09T09:40:39;16.30;99.90
6581;DHT22;3324;50.796;7.228;2022-11-09T09:43:16;16.40;99.90
6581;DHT22;3324;50.796;7.228;2022-11-09T09:45:50;16.40;99.90
6581;DHT22;3324;50.796;7.228;2022-11-09T09:51:16;16.40;99.90
6581;DHT22;3324;50.796;7.228;2022-11-09T09:53:51;16.40;99.90
6581;DHT22;3324;50.796;7.228;2022-11-09T09:56:27;16.40;99.90
6581;DHT22;3324;50.796;7.228;2022-11-09T09:59:09;16.30;99.90
6581;DHT22;3324;50.796;7.228;2022-11-09T10:01:43;16.20;99.90
6581;DHT22;3324;50.796;7.228;2022-11-09T10:04:33;16.20;99.90
6581;DHT22;3324;50.796;7.228;2022-11-09T10:07:11;16.30;99.90
6581;DHT22;3324;50.796;7.228;2022-11-09T10:09:43;16.30;99.90
6581;DHT22;3324;50.796;7.228;2022-11-09T10:12:30;16.30;99.90
6581;DHT22;3324;50.796;7.228;2022-11-09T10:18:08;16.50;99.90
6581;DHT22;3324;50.796;7.228;2022-11-09T10:21:06;16.60;99.90
6581;DHT22;3324;50.796;7.228;2022-11-09T10:29:17;16.70;99.90
6581;DHT22;3324;50.796;7.228;2022-11-09T10:31:45;16.70;99.90
6581;DHT22;3324;50.796;7.228;2022-11-09T10:34:22;16.70;99.90
6581;DHT22;3324;50.796;7.228;2022-11-09T10:37:12;16.70;99.90
6581;DHT22;3324;50.796;7.228;2022-11-09T10:39:48;16.80;99.90
6581;DHT22;3324;50.796;7.228;2022-11-09T10:42:15;16.70;99.90
6581;DHT22;3324;50.796;7.228;2022-11-09T10:44:41;16.70;99.90
6581;DHT22;3324;50.796;7.228;2022-11-09T10:47:12;16.70;99.90
6581;DHT22;3324;50.796;7.228;2022-11-09T10:49:38;16.70;99.90
6581;DHT22;3324;50.796;7.228;2022-11-09T10:52:08;16.70;99.90
6581;DHT22;3324;50.796;7.228;2022-11-09T10:54:50;16.70;99.90
6581;DHT22;3324;50.796;7.228;2022-11-09T10:57:22;16.70;99.90
6581;DHT22;3324;50.796;7.228;2022-11-09T11:07:42;16.40;99.90
6581;DHT22;3324;50.796;7.228;2022-11-09T11:12:40;16.30;99.90
6581;DHT22;3324;50.796;7.228;2022-11-09T11:15:34;16.30;99.90
6581;DHT22;3324;50.796;7.228;2022-11-09T11:18:02;16.20;99.90
6581;DHT22;3324;50.796;7.228;2022-11-09T11:20:34;16.20;99.90
6581;DHT22;3324;50.796;7.228;2022-11-09T11:23:23;16.20;99.90
6581;DHT22;3324;50.796;7.228;2022-11-09T11:28:28;16.20;99.90
6581;DHT22;3324;50.796;7.228;2022-11-09T11:30:56;16.20;99.90
6581;DHT22;3324;50.796;7.228;2022-11-09T11:33:22;16.30;99.90
6581;DHT22;3324;50.796;7.228;2022-11-09T11:44:11;16.30;99.90
6581;DHT22;3324;50.796;7.228;2022-11-09T11:49:38;16.40;99.90
6581;DHT22;3324;50.796;7.228;2022-11-09T11:58:25;16.50;99.90
6581;DHT22;3324;50.796;7.228;2022-11-09T12:04:00;16.60;99.90
6581;DHT22;3324;50.796;7.228;2022-11-09T12:06:51;16.50;99.90
6581;DHT22;3324;50.796;7.228;2022-11-09T12:09:30;16.40;99.90
6581;DHT22;3324;50.796;7.228;2022-11-09T12:12:12;16.40;99.90
6581;DHT22;3324;50.796;7.228;2022-11-09T12:15:04;16.30;99.90
6581;DHT22;3324;50.796;7.228;2022-11-09T12:20:33;16.20;99.90
6581;DHT22;3324;50.796;7.228;2022-11-09T12:36:38;16.50;99.90
6581;DHT22;3324;50.796;7.228;2022-11-09T12:39:21;16.50;99.90
6581;DHT22;3324;50.796;7.228;2022-11-09T12:41:51;16.50;99.90
6581;DHT22;3324;50.796;7.228;2022-11-09T12:44:23;16.40;99.90
6581;DHT22;3324;50.796;7.228;2022-11-09T12:46:55;16.40;99.90
6581;DHT22;3324;50.796;7.228;2022-11-09T12:49:43;16.40;99.90
6581;DHT22;3324;50.796;7.228;2022-11-09T12:52:14;16.30;99.90
6581;DHT22;3324;50.796;7.228;2022-11-09T12:54:45;16.40;99.90
6581;DHT22;3324;50.796;7.228;2022-11-09T12:57:26;16.50;99.90
6581;DHT22;3324;50.796;7.228;2022-11-09T12:59:54;16.50;99.90
6581;DHT22;3324;50.796;7.228;2022-11-09T13:03:13;16.50;99.90
6581;DHT22;3324;50.796;7.228;2022-11-09T13:05:31;16.50;99.90
6581;DHT22;3324;50.796;7.228;2022-11-09T13:07:59;16.50;99.90
6581;DHT22;3324;50.796;7.228;2022-11-09T13:10:34;16.50;99.90
6581;DHT22;3324;50.796;7.228;2022-11-09T13:15:37;16.40;99.90
6581;DHT22;3324;50.796;7.228;2022-11-09T13:21:31;16.40;99.90
6581;DHT22;3324;50.796;7.228;2022-11-09T13:27:02;16.60;99.90
6581;DHT22;3324;50.796;7.228;2022-11-09T13:29:46;16.60;99.90
6581;DHT22;3324;50.796;7.228;2022-11-09T13:45:33;16.70;99.90
6581;DHT22;3324;50.796;7.228;2022-11-09T13:47:59;16.70;99.90
6581;DHT22;3324;50.796;7.228;2022-11-09T13:50:27;16.60;99.90
6581;DHT22;3324;50.796;7.228;2022-11-09T13:52:58;16.60;99.90
6581;DHT22;3324;50.796;7.228;2022-11-09T13:55:40;16.60;99.90
6581;DHT22;3324;50.796;7.228;2022-11-09T13:58:22;16.60;99.90
6581;DHT22;3324;50.796;7.228;2022-11-09T14:00:48;16.60;99.90
6581;DHT22;3324;50.796;7.228;2022-11-09T14:05:49;16.70;99.90
6581;DHT22;3324;50.796;7.228;2022-11-09T14:08:29;16.60;99.90
6581;DHT22;3324;50.796;7.228;2022-11-09T14:11:40;16.50;99.90
6581;DHT22;3324;50.796;7.228;2022-11-09T14:22:33;16.30;99.90
6581;DHT22;3324;50.796;7.228;2022-11-09T14:25:22;16.30;99.90
6581;DHT22;3324;50.796;7.228;2022-11-09T14:27:48;16.30;99.90
6581;DHT22;3324;50.796;7.228;2022-11-09T14:30:24;16.30;99.90
6581;DHT22;3324;50.796;7.228;2022-11-09T14:32:52;16.30;99.90
6581;DHT22;3324;50.796;7.228;2022-11-09T14:37:51;16.30;99.90
6581;DHT22;3324;50.796;7.228;2022-11-09T14:40:28;16.30;99.90
6581;DHT22;3324;50.796;7.228;2022-11-09T14:43:02;16.30;99.90
6581;DHT22;3324;50.796;7.228;2022-11-09T14:45:29;16.20;99.90
6581;DHT22;3324;50.796;7.228;2022-11-09T14:47:58;16.20;99.90
6581;DHT22;3324;50.796;7.228;2022-11-09T14:50:32;16.10;99.90
6581;DHT22;3324;50.796;7.228;2022-11-09T14:53:00;16.10;99.90
6581;DHT22;3324;50.796;7.228;2022-11-09T14:55:26;16.10;99.90
6581;DHT22;3324;50.796;7.228;2022-11-09T14:57:53;16.10;99.90
6581;DHT22;3324;50.796;7.228;2022-11-09T15:00:32;16.20;99.90
6581;DHT22;3324;50.796;7.228;2022-11-09T15:02:59;16.10;99.90
6581;DHT22;3324;50.796;7.228;2022-11-09T15:05:35;16.10;99.90
6581;DHT22;3324;50.796;7.228;2022-11-09T15:08:04;16.00;99.90
6581;DHT22;3324;50.796;7.228;2022-11-09T15:10:30;16.00;99.90
6581;DHT22;3324;50.796;7.228;2022-11-09T15:12:59;16.00;99.90
6581;DHT22;3324;50.796;7.228;2022-11-09T15:15:27;16.00;99.90
6581;DHT22;3324;50.796;7.228;2022-11-09T15:17:53;16.00;99.90
6581;DHT22;3324;50.796;7.228;2022-11-09T15:23:05;16.00;99.90
6581;DHT22;3324;50.796;7.228;2022-11-09T15:25:32;15.90;99.90
6581;DHT22;3324;50.796;7.228;2022-11-09T15:30:45;16.00;99.90
6581;DHT22;3324;50.796;7.228;2022-11-09T15:38:37;15.80;99.90
6581;DHT22;3324;50.796;7.228;2022-11-09T15:41:18;15.90;99.90
6581;DHT22;3324;50.796;7.228;2022-11-09T15:43:44;15.90;99.90
6581;DHT22;3324;50.796;7.228;2022-11-09T15:46:18;15.80;99.90
6581;DHT22;3324;50.796;7.228;2022-11-09T15:48:44;15.80;99.90
6581;DHT22;3324;50.796;7.228;2022-11-09T15:51:11;15.80;99.90
6581;DHT22;3324;50.796;7.228;2022-11-09T15:53:37;15.70;99.90
6581;DHT22;3324;50.796;7.228;2022-11-09T15:56:03;15.60;99.90
6581;DHT22;3324;50.796;7.228;2022-11-09T15:58:29;15.50;99.90
6581;DHT22;3324;50.796;7.228;2022-11-09T16:00:55;15.50;99.90
6581;DHT22;3324;50.796;7.228;2022-11-09T16:03:20;15.60;99.90
6581;DHT22;3324;50.796;7.228;2022-11-09T16:05:46;15.50;99.90
6581;DHT22;3324;50.796;7.228;2022-11-09T16:08:12;15.40;99.90
6581;DHT22;3324;50.796;7.228;2022-11-09T16:10:39;15.40;99.90
6581;DHT22;3324;50.796;7.228;2022-11-09T16:13:06;15.30;99.90
6581;DHT22;3324;50.796;7.228;2022-11-09T16:15:33;15.30;99.90
6581;DHT22;3324;50.796;7.228;2022-11-09T16:18:00;15.40;99.90
6581;DHT22;3324;50.796;7.228;2022-11-09T16:20:25;15.40;99.90
6581;DHT22;3324;50.796;7.228;2022-11-09T16:22:51;15.40;99.90
6581;DHT22;3324;50.796;7.228;2022-11-09T16:25:17;15.40;99.90
6581;DHT22;3324;50.796;7.228;2022-11-09T16:27:43;15.30;99.90
6581;DHT22;3324;50.796;7.228;2022-11-09T16:30:09;15.30;99.90
6581;DHT22;3324;50.796;7.228;2022-11-09T16:32:35;15.30;99.90
6581;DHT22;3324;50.796;7.228;2022-11-09T16:35:01;15.30;99.90
6581;DHT22;3324;50.796;7.228;2022-11-09T16:37:29;15.20;99.90
6581;DHT22;3324;50.796;7.228;2022-11-09T16:39:57;15.10;99.90
6581;DHT22;3324;50.796;7.228;2022-11-09T16:42:22;15.10;99.90
6581;DHT22;3324;50.796;7.228;2022-11-09T16:44:49;15.00;99.90
6581;DHT22;3324;50.796;7.228;2022-11-09T16:47:16;15.00;99.90
6581;DHT22;3324;50.796;7.228;2022-11-09T16:49:42;14.90;99.90
6581;DHT22;3324;50.796;7.228;2022-11-09T16:52:08;14.90;99.90
6581;DHT22;3324;50.796;7.228;2022-11-09T16:54:34;14.90;99.90
6581;DHT22;3324;50.796;7.228;2022-11-09T16:57:00;14.90;99.90
6581;DHT22;3324;50.796;7.228;2022-11-09T16:59:25;14.90;99.90
6581;DHT22;3324;50.796;7.228;2022-11-09T17:01:53;14.80;99.90
6581;DHT22;3324;50.796;7.228;2022-11-09T17:04:19;14.70;99.90
6581;DHT22;3324;50.796;7.228;2022-11-09T17:06:45;14.60;99.90
6581;DHT22;3324;50.796;7.228;2022-11-09T17:09:11;14.60;99.90
6581;DHT22;3324;50.796;7.228;2022-11-09T17:11:36;14.60;99.90
6581;DHT22;3324;50.796;7.228;2022-11-09T17:14:02;14.60;99.90
6581;DHT22;3324;50.796;7.228;2022-11-09T17:16:28;14.50;99.90
6581;DHT22;3324;50.796;7.228;2022-11-09T17:18:54;14.50;99.90
6581;DHT22;3324;50.796;7.228;2022-11-09T17:21:22;14.40;99.90
6581;DHT22;3324;50.796;7.228;2022-11-09T17:23:48;14.50;99.90
6581;DHT22;3324;50.796;7.228;2022-11-09T17:26:13;14.50;99.90
6581;DHT22;3324;50.796;7.228;2022-11-09T17:28:40;14.50;99.90
6581;DHT22;3324;50.796;7.228;2022-11-09T17:31:11;14.50;99.90
6581;DHT22;3324;50.796;7.228;2022-11-09T17:33:37;14.40;99.90
6581;DHT22;3324;50.796;7.228;2022-11-09T17:36:05;14.40;99.90
6581;DHT22;3324;50.796;7.228;2022-11-09T17:38:31;14.40;99.90
6581;DHT22;3324;50.796;7.228;2022-11-09T17:41:04;14.40;99.90
6581;DHT22;3324;50.796;7.228;2022-11-09T17:43:34;14.40;99.90
6581;DHT22;3324;50.796;7.228;2022-11-09T17:46:15;14.50;99.90
6581;DHT22;3324;50.796;7.228;2022-11-09T17:48:42;14.40;99.90
6581;DHT22;3324;50.796;7.228;2022-11-09T17:51:09;14.30;99.90
6581;DHT22;3324;50.796;7.228;2022-11-09T17:53:35;14.40;99.90
6581;DHT22;3324;50.796;7.228;2022-11-09T17:56:01;14.30;99.90
6581;DHT22;3324;50.796;7.228;2022-11-09T17:58:28;14.40;99.90
6581;DHT22;3324;50.796;7.228;2022-11-09T18:00:53;14.30;99.90
6581;DHT22;3324;50.796;7.228;2022-11-09T18:03:19;14.30;99.90
6581;DHT22;3324;50.796;7.228;2022-11-09T18:05:45;14.20;99.90
6581;DHT22;3324;50.796;7.228;2022-11-09T18:08:12;14.30;99.90